This is the latest recevied weather packets stored in our database for station/object LU8FCJ-5. If no packets are shown the sender has not sent any weather packets the latest 10 day(s).
| Time | Temp. | Humidity | Pressure | Rain* | Wind** | Luminosity | Snow |
|---|---|---|---|---|---|---|---|
| 1777663450 | 26.11° C | 49% | 1009.7 hPa | 0 mm | - | - | - |
| 1777663142 | 26.67° C | 48% | 1009.5 hPa | 0 mm | - | - | - |
| 1777662830 | 26.11° C | 48% | 1009.5 hPa | 0 mm | - | - | - |
| 1777662520 | 26.67° C | 48% | 1009.5 hPa | 0 mm | - | - | - |
| 1777662212 | 26.67° C | 50% | 1009.4 hPa | 0 mm | - | - | - |
| 1777661900 | 26.67° C | 50% | 1009.3 hPa | 0 mm | - | - | - |
| 1777661589 | 26.67° C | 49% | 1009.3 hPa | 0 mm | - | - | - |
| 1777661280 | 26.67° C | 49% | 1009.2 hPa | 0 mm | - | - | - |
| 1777660969 | 26.67° C | 47% | 1009.2 hPa | 0 mm | - | - | - |
| 1777660659 | 26.67° C | 49% | 1009.1 hPa | 0 mm | - | - | - |
| 1777660350 | 26.67° C | 48% | 1009.2 hPa | 0 mm | - | - | - |
| 1777660042 | 26.67° C | 48% | 1009.1 hPa | 0 mm | - | - | - |
| 1777659728 | 26.67° C | 49% | 1008.9 hPa | 0 mm | - | - | - |
| 1777659418 | 26.67° C | 48% | 1009.1 hPa | 0 mm | - | - | - |
| 1777659108 | 26.67° C | 48% | 1008.6 hPa | 0 mm | - | - | - |
| 1777658798 | 26.11° C | 51% | 1009 hPa | 0 mm | - | - | - |
| 1777658490 | 26.11° C | 53% | 1008.8 hPa | 0 mm | - | - | - |
| 1777658183 | 26.11° C | 53% | 1008.8 hPa | 0 mm | - | - | - |
| 1777657868 | 26.67° C | 52% | 1008.9 hPa | 0 mm | - | - | - |
| 1777657559 | 26.67° C | 49% | 1008.6 hPa | 0 mm | - | - | - |
| 1777657249 | 26.67° C | 48% | 1008.9 hPa | 0 mm | - | - | - |
| 1777656938 | 27.22° C | 47% | 1008.6 hPa | 0 mm | - | - | - |
| 1777656635 | 26.67° C | 47% | 1008.7 hPa | 0 mm | - | - | - |
| 1777656318 | 25° C | 55% | 1008.9 hPa | 0 mm | - | - | - |
| 1777656007 | 25.56° C | 53% | 1008.8 hPa | 0 mm | - | - | - |
* Rain latest hour (hover to see other rain measurements)
** Current wind speed in m/s (hover to see current wind gust speed)